KSME/SME METAR and TAF weather

Enter ICAO airport designator
Station Type Date Time Source
KSME METAR 2021/05/14 06:40 UTC NOAA

KSME 140640Z AUTO 00000KT 10SM OVC100 07/01 A3029 RMK AO2


Station Type Date Time Source
KSME Decoded METAR 2021/05/14 06:40 UTC NOAA

Somerset, Somerset-Pulaski County - J.T. Wilson Field Airport, KY, United States (KSME) 37-03-15N 084-36-54W
May 14, 2021 - 02:40 AM EDT / 2021.05.14 0640 UTC
Wind: Calm:0
Visibility: 10 mile(s):0
Sky conditions: overcast
Temperature: 44 F (7 C)
Dew Point: 33 F (1 C)
Relative Humidity: 65%
Pressure (altimeter): 30.29 in. Hg (1025 hPa)
ob: KSME 140640Z AUTO 00000KT 10SM OVC100 07/01 A3029 RMK AO2
cycle: 6

Station Type Date Time Source
KSME TAF 2021/05/14 06:36 UTC NOAA

TAF KSME 140533Z 1406/1506 VRB03KT P6SM SCT090
FM141500 05005KT P6SM SCT080
FM142300 VRB03KT P6SM SCT250

Example: see airport list